createdAt,value
2017-12-31T11:38:10.068Z,15.38
2017-12-31T11:40:37.583Z,12.88
2017-12-31T11:43:05.103Z,21.52
2017-12-31T11:45:32.618Z,15.20
2017-12-31T11:48:00.117Z,18.37
2017-12-31T11:50:27.684Z,13.73
2017-12-31T11:52:55.202Z,12.55
2017-12-31T11:55:22.748Z,18.65
2017-12-31T11:57:51.009Z,10.02
2017-12-31T12:00:18.565Z,13.52
2017-12-31T12:02:46.080Z,15.88
2017-12-31T12:05:13.641Z,16.70
2017-12-31T12:07:41.229Z,12.07
2017-12-31T12:10:09.525Z,13.68
2017-12-31T12:12:37.020Z,9.95
2017-12-31T12:15:04.587Z,9.52
2017-12-31T12:17:32.080Z,11.50
2017-12-31T12:19:59.604Z,10.77
2017-12-31T12:22:27.134Z,11.98
2017-12-31T12:24:55.559Z,10.13
2017-12-31T12:27:23.058Z,11.18
2017-12-31T12:29:51.325Z,11.82
2017-12-31T12:32:18.855Z,10.23
2017-12-31T12:34:46.371Z,12.70
2017-12-31T12:37:13.900Z,8.77
2017-12-31T12:39:41.419Z,13.32
2017-12-31T12:42:09.261Z,9.68
2017-12-31T12:44:36.804Z,7.68
2017-12-31T12:47:04.369Z,8.75
2017-12-31T12:49:32.006Z,9.30
2017-12-31T12:51:59.506Z,8.80
2017-12-31T12:54:27.035Z,5.30
2017-12-31T12:56:55.458Z,7.53
2017-12-31T12:59:23.069Z,7.68
2017-12-31T13:01:50.700Z,11.15
2017-12-31T13:04:18.205Z,10.10
2017-12-31T13:06:45.794Z,12.70
2017-12-31T13:09:13.351Z,33.78
2017-12-31T13:11:40.840Z,9.90
2017-12-31T13:14:08.357Z,9.10
2017-12-31T13:16:35.931Z,7.32
2017-12-31T13:19:03.487Z,8.45
2017-12-31T13:21:30.978Z,10.15
2017-12-31T13:23:58.490Z,9.05
2017-12-31T13:26:27.179Z,7.90
2017-12-31T13:28:54.697Z,9.23
2017-12-31T13:31:22.232Z,10.40
2017-12-31T13:33:49.756Z,13.48
2017-12-31T13:36:17.259Z,7.60
2017-12-31T13:38:44.777Z,8.60
2017-12-31T13:41:12.284Z,7.85
2017-12-31T13:43:39.818Z,9.13
2017-12-31T13:46:07.326Z,11.55
2017-12-31T13:48:35.598Z,6.25
2017-12-31T13:51:03.863Z,8.00
2017-12-31T13:53:31.378Z,7.95
2017-12-31T13:55:58.929Z,6.32
2017-12-31T13:58:26.514Z,6.82
2017-12-31T14:00:54.017Z,10.18
2017-12-31T14:03:22.312Z,7.82
2017-12-31T14:05:50.266Z,8.48
2017-12-31T14:08:18.859Z,10.93
2017-12-31T14:10:46.404Z,8.57
2017-12-31T14:13:14.675Z,9.90
2017-12-31T14:15:42.179Z,8.70
2017-12-31T14:18:09.679Z,10.27
2017-12-31T14:20:37.220Z,9.77
2017-12-31T14:23:04.751Z,5.72
2017-12-31T14:25:32.271Z,6.20
2017-12-31T14:27:59.772Z,8.35
2017-12-31T14:30:27.355Z,11.27
2017-12-31T14:32:54.814Z,9.15
2017-12-31T14:35:22.359Z,10.63
2017-12-31T14:37:49.850Z,6.25
2017-12-31T14:40:17.378Z,12.15
2017-12-31T14:42:44.903Z,8.77
2017-12-31T14:45:12.417Z,6.00
2017-12-31T14:47:39.950Z,9.35
2017-12-31T14:50:07.475Z,10.90
2017-12-31T14:52:35.002Z,9.25
2017-12-31T14:55:02.505Z,6.95
2017-12-31T14:57:30.024Z,9.02
2017-12-31T14:59:57.538Z,7.62
2017-12-31T15:02:25.058Z,9.07
2017-12-31T15:04:52.559Z,8.50
2017-12-31T15:07:20.058Z,7.78
2017-12-31T15:09:47.586Z,9.80
2017-12-31T15:12:15.093Z,8.73
2017-12-31T15:14:42.605Z,12.85
2017-12-31T15:17:10.113Z,8.55
2017-12-31T15:19:38.585Z,11.35
2017-12-31T15:22:06.094Z,8.38
2017-12-31T15:24:33.625Z,5.57
2017-12-31T15:27:01.930Z,9.68
2017-12-31T15:29:29.528Z,12.88
2017-12-31T15:31:57.038Z,7.20
2017-12-31T15:34:25.317Z,8.55
2017-12-31T15:36:52.809Z,6.97
2017-12-31T15:39:20.404Z,8.00
2017-12-31T15:41:48.731Z,8.25
2017-12-31T15:44:18.073Z,13.27
2017-12-31T15:46:45.619Z,9.07
2017-12-31T15:49:13.122Z,8.57
2017-12-31T15:51:41.532Z,4.78
2017-12-31T15:54:09.046Z,8.48
2017-12-31T15:56:36.652Z,11.35
2017-12-31T15:59:04.180Z,9.68
2017-12-31T16:01:32.551Z,6.55
2017-12-31T16:04:00.115Z,12.05
2017-12-31T16:06:28.397Z,9.00
2017-12-31T16:08:56.673Z,24.05
2017-12-31T16:11:25.610Z,33.95
2017-12-31T16:13:53.423Z,9.95
2017-12-31T16:16:20.925Z,7.12
2017-12-31T16:18:48.484Z,10.32
2017-12-31T16:21:16.642Z,8.35
2017-12-31T16:23:44.175Z,7.03
2017-12-31T16:26:11.697Z,11.70
2017-12-31T16:28:39.198Z,15.20
2017-12-31T16:31:07.478Z,10.27
2017-12-31T16:33:35.060Z,7.62
2017-12-31T16:36:02.621Z,11.35
2017-12-31T16:38:30.169Z,13.30
2017-12-31T16:40:58.426Z,14.43
2017-12-31T16:43:25.976Z,11.95
2017-12-31T16:45:53.512Z,10.38
2017-12-31T16:48:21.024Z,28.58
2017-12-31T16:50:48.539Z,12.02
2017-12-31T16:53:16.080Z,19.85
2017-12-31T16:55:43.592Z,16.17
2017-12-31T16:58:11.118Z,13.60
2017-12-31T17:00:38.624Z,18.12
2017-12-31T17:03:06.888Z,19.80
2017-12-31T17:05:35.312Z,22.25
2017-12-31T17:08:02.884Z,16.30
2017-12-31T17:10:30.649Z,10.32
2017-12-31T17:12:58.158Z,5.37
2017-12-31T17:15:26.498Z,14.15
2017-12-31T17:17:54.145Z,14.00
2017-12-31T17:20:21.656Z,23.35
2017-12-31T17:22:49.221Z,16.00
2017-12-31T17:25:16.847Z,18.90
2017-12-31T17:27:44.379Z,14.87
2017-12-31T17:30:11.890Z,17.75
2017-12-31T17:32:39.413Z,13.75
2017-12-31T17:35:06.969Z,18.10
2017-12-31T17:37:34.581Z,22.80
2017-12-31T17:40:02.855Z,16.62
2017-12-31T17:42:31.155Z,11.68
2017-12-31T17:44:58.680Z,28.17
2017-12-31T17:47:26.987Z,12.57
2017-12-31T17:49:54.499Z,10.25
2017-12-31T17:52:22.024Z,8.25
2017-12-31T17:54:50.383Z,14.77
2017-12-31T17:57:17.871Z,13.02
2017-12-31T17:59:45.423Z,12.32
2017-12-31T18:02:12.955Z,15.32
2017-12-31T18:04:40.466Z,12.60
2017-12-31T18:07:07.981Z,13.77
2017-12-31T18:09:35.497Z,14.50
2017-12-31T18:12:03.057Z,16.23
2017-12-31T18:14:30.583Z,12.52
2017-12-31T18:16:58.139Z,20.55
2017-12-31T18:19:25.673Z,14.65
2017-12-31T18:21:53.945Z,12.15
2017-12-31T18:24:22.548Z,14.18
2017-12-31T18:26:50.069Z,16.02
2017-12-31T18:29:17.614Z,14.63
2017-12-31T18:31:45.132Z,10.90
2017-12-31T18:34:12.664Z,156.77
2017-12-31T18:36:40.946Z,12.32
2017-12-31T18:39:09.214Z,10.52
2017-12-31T18:41:37.503Z,10.00
2017-12-31T18:44:05.813Z,9.55
2017-12-31T18:46:33.539Z,11.93
2017-12-31T18:49:01.055Z,12.30
2017-12-31T18:51:28.595Z,14.35
2017-12-31T18:53:56.126Z,20.77
2017-12-31T18:56:23.688Z,14.32
2017-12-31T18:58:52.004Z,11.77
2017-12-31T19:01:19.536Z,11.10
2017-12-31T19:03:47.057Z,14.18
2017-12-31T19:06:14.569Z,16.40
2017-12-31T19:08:42.110Z,79.32
2017-12-31T19:11:09.725Z,32.63
2017-12-31T19:13:37.240Z,16.67
2017-12-31T19:16:04.762Z,14.15
2017-12-31T19:18:33.110Z,11.68
2017-12-31T19:21:00.641Z,13.23
2017-12-31T19:23:28.168Z,11.57
2017-12-31T19:25:56.433Z,16.60
2017-12-31T19:28:23.955Z,17.23
2017-12-31T19:30:51.475Z,13.60
2017-12-31T19:33:18.995Z,18.80
2017-12-31T19:35:46.500Z,15.02
2017-12-31T19:38:14.023Z,68.85
2017-12-31T19:40:41.541Z,29.52
2017-12-31T19:43:09.072Z,18.00
2017-12-31T19:45:36.719Z,41.45
2017-12-31T19:48:04.234Z,30.35
2017-12-31T19:50:31.745Z,39.95
2017-12-31T19:52:59.258Z,28.58
2017-12-31T19:55:26.782Z,23.45
2017-12-31T19:57:54.285Z,20.20
2017-12-31T20:00:21.792Z,51.03
2017-12-31T20:02:49.322Z,18.95
2017-12-31T20:05:16.845Z,14.40
2017-12-31T20:07:44.345Z,15.77
2017-12-31T20:10:11.849Z,16.60
2017-12-31T20:12:39.678Z,12.63
2017-12-31T20:15:07.238Z,20.12
2017-12-31T20:17:35.543Z,13.05
2017-12-31T20:20:03.074Z,15.15
2017-12-31T20:22:30.615Z,13.23
2017-12-31T20:24:58.171Z,12.13
2017-12-31T20:27:25.680Z,16.37
2017-12-31T20:29:53.231Z,13.20
2017-12-31T20:32:21.484Z,12.13
2017-12-31T20:34:49.750Z,14.30
2017-12-31T20:37:17.293Z,29.33
2017-12-31T20:39:45.521Z,14.98
2017-12-31T20:42:13.035Z,12.37
2017-12-31T20:44:40.552Z,16.40
2017-12-31T20:47:08.097Z,12.50
2017-12-31T20:49:35.612Z,23.02
2017-12-31T20:52:03.132Z,10.35
2017-12-31T20:54:30.656Z,14.85
2017-12-31T20:56:58.970Z,24.45
2017-12-31T20:59:26.477Z,16.35
2017-12-31T21:01:54.018Z,14.63
2017-12-31T21:04:21.562Z,11.38
2017-12-31T21:06:49.652Z,12.37
2017-12-31T21:09:17.222Z,13.93
2017-12-31T21:11:45.542Z,12.70
2017-12-31T21:14:13.097Z,13.10
2017-12-31T21:16:40.610Z,27.23
2017-12-31T21:19:08.182Z,15.77
2017-12-31T21:21:35.697Z,14.57
2017-12-31T21:24:03.317Z,25.50
2017-12-31T21:26:30.820Z,26.10
2017-12-31T21:28:58.339Z,43.22
2017-12-31T21:31:26.637Z,26.15
2017-12-31T21:33:54.927Z,46.45
2017-12-31T21:36:22.456Z,22.87
2017-12-31T21:38:49.989Z,23.77
2017-12-31T21:41:18.283Z,18.12
2017-12-31T21:43:45.795Z,19.52
2017-12-31T21:46:13.310Z,18.48
2017-12-31T21:48:40.813Z,14.93
2017-12-31T21:51:08.401Z,12.45
2017-12-31T21:53:36.000Z,12.10
2017-12-31T21:56:04.311Z,16.45
2017-12-31T21:58:31.830Z,17.40
2017-12-31T22:00:59.733Z,22.05
2017-12-31T22:03:27.240Z,97.30
2017-12-31T22:05:54.853Z,22.40
2017-12-31T22:08:22.369Z,23.25
2017-12-31T22:10:49.886Z,20.55
2017-12-31T22:13:17.392Z,17.20
2017-12-31T22:15:44.925Z,19.30
2017-12-31T22:18:12.598Z,56.30
2017-12-31T22:20:40.120Z,27.05
2017-12-31T22:23:07.682Z,29.15
2017-12-31T22:25:35.233Z,27.80
2017-12-31T22:28:02.756Z,14.85
2017-12-31T22:30:31.015Z,19.77
2017-12-31T22:32:58.537Z,16.00
2017-12-31T22:35:26.054Z,29.08
2017-12-31T22:37:53.656Z,23.98
2017-12-31T22:40:21.170Z,17.73
2017-12-31T22:42:49.464Z,25.92
2017-12-31T22:45:16.963Z,21.62
2017-12-31T22:47:44.619Z,15.27
2017-12-31T22:50:12.196Z,24.45
2017-12-31T22:52:39.698Z,27.75
2017-12-31T22:55:08.017Z,23.55
2017-12-31T22:57:35.554Z,27.75
2017-12-31T23:00:03.052Z,30.27
2017-12-31T23:02:30.571Z,74.68
2017-12-31T23:04:58.111Z,108.22
2017-12-31T23:07:26.393Z,137.55
2017-12-31T23:09:54.733Z,135.00
2017-12-31T23:12:23.051Z,192.87
2017-12-31T23:14:51.395Z,228.60
2017-12-31T23:17:19.062Z,200.32
2017-12-31T23:19:46.665Z,164.07
2017-12-31T23:22:14.237Z,259.25
2017-12-31T23:24:41.742Z,457.83
2017-12-31T23:27:09.265Z,229.77
2017-12-31T23:29:36.869Z,169.30
2017-12-31T23:32:04.434Z,219.85
2017-12-31T23:34:31.951Z,132.37
2017-12-31T23:36:59.673Z,142.57
2017-12-31T23:39:27.221Z,134.18
2017-12-31T23:41:54.758Z,94.80
2017-12-31T23:44:22.268Z,76.30
2017-12-31T23:46:49.789Z,88.25
2017-12-31T23:49:17.327Z,110.07
2017-12-31T23:51:44.855Z,100.15
2017-12-31T23:54:12.836Z,97.53
2017-12-31T23:56:40.364Z,70.78
2017-12-31T23:59:08.702Z,82.50
